Time;durP1;ratioP1;P1;durP2;ratioP2;P2;SDS_P1;SDS_P2;PMS_P1;PMS_P2;Temp;Humidity;BMP_temperature;BMP_pressure;BME280_temperature;BME280_humidity;BME280_pressure;Samples;Min_cycle;Max_cycle;Signal;HPM_P1;HPM_P2
2022/10/19 00:02:04;;;;;;;;;2.00;2.00;;;;;19.72;63.22;99450.34;6235499;28;96485;-67
2022/10/19 00:05:08;;;;;;;;;3.00;3.00;;;;;19.75;62.77;99446.25;6214644;28;96164;-67
2022/10/19 00:08:11;;;;;;;;;4.00;4.00;;;;;19.69;63.42;99444.59;6214765;28;96494;-67
2022/10/19 00:11:16;;;;;;;;;3.00;3.00;;;;;19.69;63.34;99448.19;6214187;28;96298;-66
2022/10/19 00:14:22;;;;;;;;;3.00;3.00;;;;;19.65;63.62;99454.41;6224267;28;96193;-67
2022/10/19 00:17:25;;;;;;;;;3.25;3.25;;;;;19.66;63.86;99450.59;6234571;28;96314;-66
2022/10/19 00:20:29;;;;;;;;;3.20;3.00;;;;;19.61;63.86;99451.41;6214759;28;96259;-67
2022/10/19 00:23:33;;;;;;;;;4.60;4.60;;;;;19.62;63.41;99452.22;6214203;28;96332;-67
2022/10/19 00:26:38;;;;;;;;;3.25;3.25;;;;;19.57;63.29;99453.03;6212977;28;96629;-67
2022/10/19 00:29:42;;;;;;;;;4.00;4.00;;;;;19.59;62.96;99445.41;6214287;28;96309;-67
2022/10/19 00:32:45;;;;;;;;;5.00;4.00;;;;;19.55;63.35;99457.94;6213752;28;96321;-66
2022/10/19 00:35:49;;;;;;;;;6.00;6.00;;;;;19.54;63.88;99447.28;6213619;28;96214;-67
2022/10/19 00:38:54;;;;;;;;;5.20;5.20;;;;;19.45;63.82;99447.75;6214965;28;96484;-67
2022/10/19 00:41:59;;;;;;;;;7.00;7.00;;;;;19.55;63.42;99462.59;6204477;28;96866;-67
2022/10/19 00:45:14;;;;;;;;;8.00;7.40;;;;;19.51;63.42;99465.03;6195880;28;96943;-67
2022/10/19 00:48:22;;;;;;;;;8.00;7.00;;;;;19.39;62.75;99448.00;6205640;28;96752;-67
2022/10/19 00:51:28;;;;;;;;;8.00;7.00;;;;;19.38;62.02;99449.06;6213644;28;96629;-67
2022/10/19 00:54:33;;;;;;;;;7.00;6.00;;;;;19.37;62.09;99450.97;6225710;28;97349;-66
2022/10/19 00:57:39;;;;;;;;;6.00;6.00;;;;;19.30;62.51;99453.13;6223278;28;97725;-67
2022/10/19 01:00:43;;;;;;;;;8.25;7.00;;;;;19.08;62.57;99422.38;6213354;28;97520;-66
2022/10/19 01:03:46;;;;;;;;;7.00;7.00;;;;;19.14;62.65;99435.00;6205570;28;96520;-66
2022/10/19 01:06:51;;;;;;;;;7.00;7.00;;;;;19.12;62.68;99428.13;6216123;28;96734;-66
2022/10/19 01:09:55;;;;;;;;;6.80;6.20;;;;;19.06;62.90;99426.47;6213222;28;96241;-66
2022/10/19 01:13:14;;;;;;;;;7.00;7.00;;;;;19.07;62.75;99426.19;6213746;28;96735;-67
2022/10/19 01:16:25;;;;;;;;;7.00;6.60;;;;;19.04;62.44;99418.53;6213242;28;96278;-67
2022/10/19 01:19:50;;;;;;;;;8.60;8.40;;;;;19.08;62.15;99427.84;6213352;28;96253;-67
2022/10/19 01:23:05;;;;;;;;;8.00;7.25;;;;;19.00;62.43;99422.88;6214143;28;96705;-65
2022/10/19 01:26:26;;;;;;;;;10.80;8.80;;;;;18.92;62.96;99409.69;6215553;28;96234;-68
2022/10/19 01:29:54;;;;;;;;;9.00;8.20;;;;;18.91;62.89;99414.34;6213617;28;96465;-65
2022/10/19 01:33:12;;;;;;;;;7.00;6.00;;;;;18.86;63.45;99406.09;6221778;28;96753;-66
2022/10/19 01:36:23;;;;;;;;;6.67;6.67;;;;;18.80;63.76;99398.16;6223623;28;97031;-67
2022/10/19 01:39:36;;;;;;;;;7.40;7.40;;;;;18.73;64.74;99403.84;6225098;27;96404;-66
2022/10/19 01:42:45;;;;;;;;;7.50;7.50;;;;;18.72;65.08;99409.56;6225512;28;96492;-66
2022/10/19 01:45:54;;;;;;;;;7.00;7.00;;;;;18.69;64.99;99399.16;6222784;28;96194;-67
2022/10/19 01:49:04;;;;;;;;;8.40;8.40;;;;;18.52;65.12;99372.78;6219918;28;96557;-66
2022/10/19 01:52:10;;;;;;;;;8.25;7.25;;;;;18.59;65.59;99395.28;6223352;28;96370;-66
2022/10/19 01:55:17;;;;;;;;;10.00;8.00;;;;;18.62;65.40;99393.91;6222640;28;97690;-66
2022/10/19 01:58:26;;;;;;;;;9.00;9.00;;;;;18.63;65.56;99390.09;6204320;28;96624;-66
2022/10/19 02:01:35;;;;;;;;;8.00;7.20;;;;;18.61;65.77;99405.94;6217257;28;96343;-66
2022/10/19 02:04:40;;;;;;;;;11.00;10.00;;;;;18.62;65.64;99404.84;6226555;28;96304;-66
2022/10/19 02:07:49;;;;;;;;;8.00;8.00;;;;;18.61;65.65;99405.94;6211752;28;96538;-66
2022/10/19 02:10:54;;;;;;;;;10.00;9.00;;;;;18.53;66.47;99403.66;6219369;28;96984;-66
2022/10/19 02:14:04;;;;;;;;;9.00;9.00;;;;;18.52;66.59;99407.47;6201991;28;97776;-66
2022/10/19 02:17:13;;;;;;;;;11.00;10.00;;;;;18.48;66.79;99395.41;6221995;28;96250;-66
2022/10/19 02:20:18;;;;;;;;;10.00;9.60;;;;;18.48;66.81;99398.97;6222308;28;96489;-66
2022/10/19 02:23:25;;;;;;;;;9.00;8.00;;;;;18.41;67.24;99401.09;6223158;28;96394;-66
2022/10/19 02:26:29;;;;;;;;;11.00;10.00;;;;;18.49;66.91;99405.25;6221882;28;96628;-66
2022/10/19 02:29:33;;;;;;;;;8.00;8.00;;;;;18.46;67.13;99394.88;6221108;28;96394;-66
2022/10/19 02:32:38;;;;;;;;;8.80;8.00;;;;;18.31;67.16;99386.53;6218298;28;97503;-66
2022/10/19 02:35:42;;;;;;;;;9.25;9.00;;;;;18.37;67.70;99388.25;6223116;28;96279;-66
2022/10/19 02:38:45;;;;;;;;;11.00;10.00;;;;;18.28;67.51;99371.50;6215221;28;96979;-65
2022/10/19 02:41:54;;;;;;;;;8.60;8.00;;;;;18.29;68.25;99377.78;6217298;28;96263;-66
2022/10/19 02:45:02;;;;;;;;;9.00;8.80;;;;;18.21;68.98;99370.06;6213128;28;96303;-66
2022/10/19 02:48:12;;;;;;;;;6.80;6.00;;;;;18.19;69.26;99373.06;6235485;28;96247;-66
2022/10/19 02:51:30;;;;;;;;;8.80;8.80;;;;;18.13;69.45;99364.00;6217757;28;97668;-66
2022/10/19 02:54:34;;;;;;;;;9.00;9.00;;;;;18.00;70.41;99377.25;6218530;28;96383;-66
2022/10/19 02:57:37;;;;;;;;;12.00;11.00;;;;;17.94;71.09;99381.81;6197947;28;97445;-66
2022/10/19 03:00:41;;;;;;;;;10.40;9.40;;;;;18.04;70.54;99372.91;6219777;28;96188;-66
2022/10/19 03:03:45;;;;;;;;;9.00;7.60;;;;;18.04;70.60;99375.63;6232254;28;96486;-66
2022/10/19 03:06:49;;;;;;;;;11.00;10.00;;;;;18.08;70.39;99371.34;6239581;28;96396;-66
2022/10/19 03:09:53;;;;;;;;;10.00;9.00;;;;;18.06;70.68;99376.22;6241047;28;96367;-66
2022/10/19 03:12:58;;;;;;;;;13.00;11.40;;;;;18.05;71.06;99372.66;6240120;28;96416;-66
2022/10/19 03:16:07;;;;;;;;;10.20;9.00;;;;;18.03;71.37;99372.09;6238196;28;96892;-66
2022/10/19 03:19:11;;;;;;;;;11.00;10.60;;;;;18.11;70.93;99373.53;6239232;28;96996;-66
2022/10/19 03:22:15;;;;;;;;;11.00;10.40;;;;;18.18;70.52;99379.59;6239237;28;96180;-66
2022/10/19 03:25:18;;;;;;;;;12.00;11.33;;;;;18.18;71.04;99391.34;6240120;28;96563;-66
2022/10/19 03:28:22;;;;;;;;;13.00;11.20;;;;;18.19;71.02;99378.50;6238018;28;96021;-65
2022/10/19 03:31:26;;;;;;;;;13.00;11.20;;;;;18.12;71.25;99373.28;6226516;28;96646;-66
2022/10/19 03:34:31;;;;;;;;;15.00;12.40;;;;;18.22;70.86;99374.47;6214891;28;96389;-66
2022/10/19 03:37:34;;;;;;;;;12.40;12.00;;;;;18.26;70.53;99386.50;6219459;28;96809;-66
2022/10/19 03:40:38;;;;;;;;;12.00;11.40;;;;;18.28;70.45;99376.13;6217854;28;96752;-66
2022/10/19 03:43:41;;;;;;;;;13.75;13.00;;;;;18.24;70.66;99370.38;6223528;28;96347;-66
2022/10/19 03:46:45;;;;;;;;;16.00;13.00;;;;;18.32;70.44;99377.28;6222859;28;96736;-66
2022/10/19 03:49:50;;;;;;;;;14.60;14.00;;;;;18.29;70.11;99366.84;6215043;28;96318;-66
2022/10/19 03:52:55;;;;;;;;;12.00;11.00;;;;;18.31;70.39;99367.44;6210174;28;96550;-66
2022/10/19 03:56:03;;;;;;;;;16.00;15.00;;;;;18.22;70.78;99369.81;6218195;28;96253;-66
2022/10/19 03:59:07;;;;;;;;;18.00;16.40;;;;;18.12;70.96;99364.28;6219691;28;96496;-66
2022/10/19 04:02:11;;;;;;;;;17.80;15.00;;;;;18.17;70.76;99367.88;6216078;28;96652;-65
2022/10/19 04:05:16;;;;;;;;;18.60;16.00;;;;;18.18;70.35;99358.59;6215541;28;96281;-66
2022/10/19 04:08:19;;;;;;;;;15.40;14.00;;;;;18.23;70.41;99359.75;6223058;28;96919;-66
2022/10/19 04:11:24;;;;;;;;;15.20;13.60;;;;;18.27;70.16;99350.75;6223797;28;96873;-65
2022/10/19 04:14:28;;;;;;;;;16.50;15.50;;;;;18.26;69.74;99359.19;6220274;28;96518;-66
2022/10/19 04:17:41;;;;;;;;;17.00;15.00;;;;;18.29;69.07;99353.22;6227710;28;97121;-66
2022/10/19 04:20:55;;;;;;;;;17.00;15.80;;;;;18.27;68.86;99347.22;6221520;28;96816;-66
2022/10/19 04:24:01;;;;;;;;;16.20;14.00;;;;;18.29;68.43;99343.13;6237475;28;96539;-66
2022/10/19 04:27:05;;;;;;;;;18.00;15.00;;;;;18.24;68.62;99348.53;6224065;28;96363;-66
2022/10/19 04:30:09;;;;;;;;;15.00;14.50;;;;;18.31;68.21;99359.25;6232902;28;96494;-66
2022/10/19 04:33:12;;;;;;;;;16.40;14.80;;;;;18.33;68.14;99357.06;6231665;28;96241;-66
2022/10/19 04:36:17;;;;;;;;;15.80;14.80;;;;;18.32;68.23;99350.81;6231818;28;96873;-66
2022/10/19 04:39:20;;;;;;;;;17.00;15.40;;;;;18.28;67.74;99352.38;6197687;28;96612;-66
2022/10/19 04:42:23;;;;;;;;;17.20;14.20;;;;;18.19;68.09;99354.78;6216319;28;96418;-66
2022/10/19 04:45:27;;;;;;;;;18.00;16.00;;;;;18.21;67.62;99359.16;6213159;28;96481;-66
2022/10/19 04:48:30;;;;;;;;;17.80;15.40;;;;;18.22;67.40;99358.91;6223532;28;98542;-66
2022/10/19 04:51:35;;;;;;;;;17.00;15.00;;;;;18.14;67.51;99343.81;6205237;28;97593;-66
2022/10/19 04:54:38;;;;;;;;;17.00;15.00;;;;;18.12;67.51;99351.47;6217393;28;96802;-66
2022/10/19 04:57:42;;;;;;;;;15.00;14.00;;;;;18.05;67.72;99344.56;6220694;28;96189;-65
2022/10/19 05:00:45;;;;;;;;;17.60;15.40;;;;;18.07;67.63;99335.03;6227664;28;96967;-66
2022/10/19 05:03:52;;;;;;;;;15.80;14.40;;;;;18.03;67.64;99342.06;6214149;28;96414;-66
2022/10/19 05:06:57;;;;;;;;;17.20;15.00;;;;;18.01;67.62;99340.69;6214612;28;96182;-66
2022/10/19 05:10:01;;;;;;;;;11.00;8.00;;;;;18.00;67.43;99349.97;6210707;28;96427;-66
2022/10/19 05:13:05;;;;;;;;;20.00;16.60;;;;;17.86;67.47;99330.47;6177826;28;96781;-66
2022/10/19 05:16:11;;;;;;;;;15.50;14.50;;;;;18.01;67.20;99357.91;6199008;28;96761;-66
2022/10/19 05:19:15;;;;;;;;;17.00;15.60;;;;;18.00;67.56;99347.22;6208692;28;96862;-66
2022/10/19 05:22:20;;;;;;;;;19.40;16.40;;;;;18.01;67.22;99349.72;6223251;28;97530;-66
2022/10/19 05:25:23;;;;;;;;;16.00;15.75;;;;;18.09;67.07;99351.97;6218932;28;96599;-66
2022/10/19 05:28:27;;;;;;;;;19.00;16.50;;;;;18.10;66.79;99358.25;6221996;28;96389;-66
2022/10/19 05:31:32;;;;;;;;;17.40;17.00;;;;;18.06;66.57;99360.66;6222091;28;96780;-66
2022/10/19 05:34:35;;;;;;;;;19.00;16.00;;;;;18.06;67.03;99355.22;6233303;28;96427;-66
2022/10/19 05:37:40;;;;;;;;;17.40;16.00;;;;;18.04;65.88;99349.19;6237487;28;96364;-66
2022/10/19 05:40:47;;;;;;;;;17.40;15.40;;;;;17.98;66.18;99355.69;6228741;28;96436;-66
2022/10/19 05:43:57;;;;;;;;;21.00;17.00;;;;;17.90;66.11;99353.41;6212794;28;96458;-66
2022/10/19 05:47:01;;;;;;;;;17.80;15.20;;;;;17.99;65.70;99357.31;6211065;28;96360;-66
2022/10/19 05:50:05;;;;;;;;;19.00;15.00;;;;;18.01;65.52;99362.53;6211304;28;96444;-66
2022/10/19 05:53:10;;;;;;;;;17.40;16.00;;;;;18.03;65.24;99361.16;6212616;28;96462;-66
2022/10/19 05:56:15;;;;;;;;;16.40;15.00;;;;;18.10;64.56;99359.06;6212436;28;96324;-66
2022/10/19 05:59:21;;;;;;;;;15.00;14.50;;;;;18.17;64.00;99364.31;6212414;28;96275;-66
2022/10/19 06:02:24;;;;;;;;;16.00;15.00;;;;;18.17;64.14;99362.41;6194477;28;96985;-66
2022/10/19 06:05:27;;;;;;;;;12.00;12.00;;;;;18.19;63.80;99367.59;6193541;28;99015;-66
2022/10/19 06:08:33;;;;;;;;;15.00;13.60;;;;;18.21;63.18;99381.00;6214527;28;96267;-67
2022/10/19 06:11:39;;;;;;;;;15.75;15.00;;;;;17.95;63.13;99349.91;6217983;28;96330;-66
2022/10/19 06:14:43;;;;;;;;;12.40;11.00;;;;;18.14;62.86;99382.03;6212559;28;96239;-66
2022/10/19 06:17:46;;;;;;;;;15.00;14.00;;;;;18.06;62.68;99392.59;6211738;28;96915;-66
2022/10/19 06:20:49;;;;;;;;;16.00;14.20;;;;;18.04;62.43;99398.28;6212072;28;96496;-66
2022/10/19 06:23:56;;;;;;;;;16.00;14.75;;;;;17.99;62.66;99402.88;6221074;28;96275;-66
2022/10/19 06:26:59;;;;;;;;;14.60;14.00;;;;;17.98;62.29;99399.34;6240281;28;96463;-66
2022/10/19 06:30:12;;;;;;;;;15.00;14.00;;;;;17.89;62.09;99400.88;6224834;28;96176;-66
2022/10/19 06:33:15;;;;;;;;;19.00;18.00;;;;;19.09;60.52;99393.97;6241448;28;96249;-67
2022/10/19 06:36:21;;;;;;;;;20.60;18.60;;;;;21.85;51.40;99396.25;6240578;28;96498;-66
2022/10/19 06:39:25;;;;;;;;;17.60;17.00;;;;;24.50;44.53;99401.47;6241217;28;96507;-66
2022/10/19 06:42:29;;;;;;;;;17.00;17.00;;;;;26.77;38.07;99406.22;6240733;28;97052;-67
2022/10/19 06:45:32;;;;;;;;;14.40;14.40;;;;;28.42;34.85;99405.34;6241082;28;96329;-67
2022/10/19 06:48:38;;;;;;;;;19.00;18.00;;;;;29.91;31.42;99411.78;6222704;28;96481;-67
2022/10/19 06:51:42;;;;;;;;;14.60;14.00;;;;;31.32;29.82;99407.94;6240407;28;96248;-67
2022/10/19 06:54:46;;;;;;;;;12.50;11.50;;;;;32.40;27.98;99419.38;6240984;28;96699;-67
2022/10/19 06:57:50;;;;;;;;;12.25;12.00;;;;;33.14;26.79;99412.31;6239711;28;98564;-67
2022/10/19 07:00:57;;;;;;;;;15.00;14.00;;;;;33.05;26.54;99426.44;6197719;28;97615;-67
2022/10/19 07:04:01;;;;;;;;;13.50;13.00;;;;;31.98;26.79;99421.66;6216168;28;96436;-67
2022/10/19 07:07:06;;;;;;;;;13.00;11.60;;;;;32.16;27.37;99436.16;6196671;28;97081;-67
2022/10/19 07:10:10;;;;;;;;;14.40;13.00;;;;;31.73;27.12;99433.97;6215471;28;96374;-67
2022/10/19 07:13:14;;;;;;;;;14.00;13.00;;;;;30.73;28.35;99426.06;6215484;28;96473;-67
2022/10/19 07:16:18;;;;;;;;;15.00;13.60;;;;;32.07;27.33;99436.28;6214760;28;97099;-67
2022/10/19 07:19:26;;;;;;;;;15.00;13.00;;;;;32.84;25.77;99428.66;6227448;28;96508;-67
2022/10/19 07:22:29;;;;;;;;;11.40;10.60;;;;;32.21;25.63;99438.72;6239061;28;96594;-67
2022/10/19 07:25:35;;;;;;;;;12.00;10.00;;;;;32.38;25.88;99440.44;6238182;28;96827;-67
2022/10/19 07:28:39;;;;;;;;;13.00;12.50;;;;;30.51;28.13;99447.53;6236931;28;96556;-67
2022/10/19 07:31:43;;;;;;;;;15.00;13.40;;;;;28.58;31.27;99436.19;6236623;28;97105;-66
2022/10/19 07:34:47;;;;;;;;;15.00;14.00;;;;;26.94;33.91;99420.16;6236078;28;96377;-66
2022/10/19 07:37:50;;;;;;;;;15.00;13.00;;;;;25.61;36.40;99435.34;6212384;28;96769;-66
2022/10/19 07:41:02;;;;;;;;;15.00;13.00;;;;;24.02;38.88;99428.34;6212133;28;96459;-66
2022/10/19 07:44:05;;;;;;;;;16.00;14.00;;;;;23.11;41.03;99429.44;6196163;28;97055;-66
2022/10/19 07:47:10;;;;;;;;;15.00;14.00;;;;;22.45;43.09;99436.28;6214182;28;96528;-69
2022/10/19 07:50:14;;;;;;;;;15.80;15.80;;;;;21.54;45.24;99428.53;6214424;28;96610;-67
2022/10/19 07:53:17;;;;;;;;;17.40;16.00;;;;;21.17;46.40;99444.53;6213777;28;96518;-67
2022/10/19 07:56:24;;;;;;;;;16.40;15.00;;;;;20.61;48.07;99439.09;6214098;28;96495;-67
2022/10/19 07:59:27;;;;;;;;;16.00;15.00;;;;;20.35;49.04;99429.19;6195977;28;96500;-67
2022/10/19 08:02:31;;;;;;;;;18.00;16.75;;;;;20.45;48.97;99421.00;6213981;28;96524;-67
2022/10/19 08:05:54;;;;;;;;;15.60;15.40;;;;;21.81;47.00;99424.56;6213685;28;96476;-67
2022/10/19 08:08:57;;;;;;;;;13.00;13.00;;;;;23.56;42.07;99428.94;6215731;28;96796;-67
2022/10/19 08:12:03;;;;;;;;;13.60;12.00;;;;;23.92;40.83;99418.31;6205575;28;98930;-67
2022/10/19 08:15:08;;;;;;;;;14.60;13.00;;;;;23.79;40.05;99438.31;6214756;28;96414;-65
2022/10/19 08:18:11;;;;;;;;;12.00;11.00;;;;;23.31;40.48;99427.25;6213789;28;96506;-67
2022/10/19 08:21:15;;;;;;;;;11.20;10.80;;;;;24.97;37.96;99426.06;6213929;28;96616;-67
2022/10/19 08:24:20;;;;;;;;;12.60;11.00;;;;;25.31;36.88;99411.94;6212757;28;96374;-67
2022/10/19 08:27:25;;;;;;;;;13.00;12.00;;;;;24.82;36.35;99412.53;6213108;28;97514;-67
2022/10/19 08:30:28;;;;;;;;;11.00;10.00;;;;;24.26;37.71;99418.13;6217261;28;96768;-67
2022/10/19 08:33:32;;;;;;;;;12.00;11.00;;;;;23.68;38.56;99428.53;6210962;28;96615;-66
2022/10/19 08:36:36;;;;;;;;;11.00;10.00;;;;;22.89;39.74;99422.47;6214163;28;96729;-67
2022/10/19 08:39:39;;;;;;;;;10.50;10.00;;;;;22.19;40.78;99418.34;6235055;28;97191;-66
2022/10/19 08:42:53;;;;;;;;;14.40;12.60;;;;;21.41;42.86;99414.56;6234725;28;96530;-66
2022/10/19 08:46:06;;;;;;;;;12.50;11.00;;;;;20.98;43.47;99429.72;6234860;28;96981;-66
2022/10/19 08:49:15;;;;;;;;;12.20;11.00;;;;;20.44;45.27;99429.47;6203335;28;96568;-67
2022/10/19 08:52:22;;;;;;;;;12.40;11.40;;;;;19.95;46.27;99401.72;6210874;28;96827;-67
2022/10/19 08:55:36;;;;;;;;;10.00;9.80;;;;;20.11;45.84;99425.28;6213111;28;96391;-66
2022/10/19 08:58:59;;;;;;;;;11.00;10.00;;;;;20.91;43.73;99423.72;6212963;28;96779;-67
2022/10/19 09:02:10;;;;;;;;;13.00;12.00;;;;;20.81;43.78;99421.00;6212560;28;97348;-67
2022/10/19 09:05:21;;;;;;;;;12.00;10.00;;;;;20.49;43.57;99426.75;6212553;28;96471;-67
2022/10/19 09:08:24;;;;;;;;;10.00;9.00;;;;;20.20;42.15;99418.19;6212774;28;96273;-70
2022/10/19 09:11:32;;;;;;;;;9.20;8.00;;;;;19.90;44.14;99408.81;6213162;28;96409;-69
2022/10/19 09:14:47;;;;;;;;;10.00;8.80;;;;;19.66;44.29;99417.78;6194419;28;97756;-70
2022/10/19 09:17:50;;;;;;;;;10.20;10.00;;;;;19.44;44.79;99431.63;6213614;28;96268;-69
2022/10/19 09:21:00;;;;;;;;;11.00;10.00;;;;;19.18;44.93;99430.63;6231972;28;96696;-69
2022/10/19 09:24:07;;;;;;;;;10.00;10.00;;;;;18.97;45.28;99426.13;6213277;28;96388;-70
2022/10/19 09:27:19;;;;;;;;;12.00;9.00;;;;;18.73;44.87;99419.41;6212605;28;96440;-70
2022/10/19 09:30:24;;;;;;;;;8.00;8.00;;;;;18.57;44.79;99410.25;6212632;28;96925;-70
2022/10/19 09:33:34;;;;;;;;;7.00;7.00;;;;;18.64;44.69;99426.44;6212489;28;96322;-69
2022/10/19 09:36:42;;;;;;;;;9.20;9.00;;;;;18.51;44.89;99427.69;6213008;28;96418;-70
2022/10/19 09:39:54;;;;;;;;;9.20;8.00;;;;;18.55;44.76;99437.84;6217142;28;96415;-70
2022/10/19 09:43:02;;;;;;;;;7.00;7.00;;;;;18.59;44.56;99440.88;6220361;28;97503;-70
2022/10/19 09:46:15;;;;;;;;;7.00;7.00;;;;;18.62;44.12;99423.94;6221031;28;96282;-71
2022/10/19 09:49:39;;;;;;;;;7.60;6.60;;;;;18.62;41.48;99429.41;6234318;28;96239;-69
2022/10/19 09:52:44;;;;;;;;;6.00;6.00;;;;;18.74;41.52;99449.19;6236604;28;96395;-71
2022/10/19 09:55:51;;;;;;;;;5.20;5.20;;;;;18.67;41.63;99447.78;6216883;28;96872;-66
2022/10/19 09:58:56;;;;;;;;;6.00;6.00;;;;;18.80;41.97;99444.59;6234426;27;96829;-70
2022/10/19 10:02:17;;;;;;;;;5.00;5.00;;;;;18.82;41.98;99440.50;6237220;28;97002;-70
2022/10/19 10:05:32;;;;;;;;;6.80;5.80;;;;;18.96;41.57;99441.69;6238221;28;96587;-70
2022/10/19 10:08:38;;;;;;;;;5.00;5.00;;;;;19.60;40.38;99432.50;6239084;28;96567;-71
2022/10/19 10:11:45;;;;;;;;;4.75;4.75;;;;;20.22;39.61;99432.44;6221964;28;96255;-70
2022/10/19 10:14:51;;;;;;;;;6.00;5.20;;;;;22.01;36.47;99438.22;6240346;28;98111;-70
2022/10/19 10:17:58;;;;;;;;;6.80;5.20;;;;;24.02;32.96;99431.13;6222645;28;97416;-70
2022/10/19 10:21:04;;;;;;;;;5.00;5.00;;;;;24.04;32.09;99401.34;6241507;28;96582;-70
2022/10/19 10:24:18;;;;;;;;;6.00;5.60;;;;;23.90;31.87;99416.94;6229895;28;96359;-70
2022/10/19 10:27:29;;;;;;;;;5.00;5.00;;;;;23.19;32.64;99426.03;6241198;28;97448;-70
2022/10/19 10:30:36;;;;;;;;;4.40;4.40;;;;;22.47;33.91;99416.78;6241345;28;96339;-70
2022/10/19 10:33:41;;;;;;;;;6.60;6.00;;;;;21.92;34.56;99424.25;6241016;28;96206;-71
2022/10/19 10:36:51;;;;;;;;;5.00;5.00;;;;;21.34;35.96;99425.84;6240413;28;96458;-69
2022/10/19 10:39:57;;;;;;;;;5.00;5.00;;;;;21.02;37.13;99422.59;6240826;28;96881;-70
2022/10/19 10:43:12;;;;;;;;;6.00;5.00;;;;;20.68;36.92;99434.13;6241082;28;96347;-70
2022/10/19 10:46:21;;;;;;;;;4.40;4.40;;;;;20.43;37.10;99431.38;6206120;28;96604;-70
2022/10/19 10:49:29;;;;;;;;;5.00;4.40;;;;;20.10;36.97;99431.84;6240927;28;96376;-70
2022/10/19 10:52:34;;;;;;;;;4.00;3.60;;;;;19.87;37.66;99435.91;6235789;28;97023;-70
2022/10/19 10:55:38;;;;;;;;;5.80;4.20;;;;;19.74;38.27;99434.47;6229412;28;96426;-70
2022/10/19 10:58:48;;;;;;;;;5.00;4.00;;;;;19.58;38.47;99419.13;6222627;28;96224;-70
2022/10/19 11:02:00;;;;;;;;;4.00;4.00;;;;;19.72;38.21;99424.91;6222266;28;97060;-70
2022/10/19 11:05:11;;;;;;;;;4.60;4.00;;;;;19.72;38.12;99424.91;6237142;28;96498;-69
2022/10/19 11:08:24;;;;;;;;;5.00;5.00;;;;;19.78;38.05;99423.84;6210305;28;96737;-70
2022/10/19 11:11:32;;;;;;;;;3.00;3.00;;;;;19.77;37.94;99419.47;6233088;27;96498;-70
2022/10/19 11:14:45;;;;;;;;;5.00;5.00;;;;;19.83;37.33;99418.41;6240576;28;96373;-70
2022/10/19 11:17:58;;;;;;;;;5.00;4.00;;;;;20.08;36.07;99414.91;6221314;28;96533;-69
2022/10/19 11:21:09;;;;;;;;;4.00;4.00;;;;;20.29;35.53;99417.38;6240691;28;96268;-69
2022/10/19 11:24:21;;;;;;;;;5.00;5.00;;;;;20.40;34.69;99411.94;6239781;28;96144;-69
2022/10/19 11:27:39;;;;;;;;;2.20;2.20;;;;;20.33;33.96;99417.69;6240456;28;96403;-70
2022/10/19 11:30:53;;;;;;;;;1.40;1.40;;;;;19.85;33.35;99417.00;6222033;28;97290;-69
2022/10/19 11:34:05;;;;;;;;;3.00;3.00;;;;;19.64;34.24;99425.44;6240268;28;97427;-69
2022/10/19 11:37:23;;;;;;;;;3.00;3.00;;;;;19.32;34.60;99440.00;6221984;28;97477;-69
2022/10/19 11:40:35;;;;;;;;;6.00;5.60;;;;;19.32;35.10;99431.81;6231232;28;96399;-69
2022/10/19 11:43:56;;;;;;;;;4.00;4.00;;;;;19.15;35.56;99431.19;6240082;28;96260;-69
2022/10/19 11:47:14;;;;;;;;;4.00;4.00;;;;;19.03;36.69;99428.63;6231789;28;96418;-69
2022/10/19 11:50:30;;;;;;;;;6.00;4.50;;;;;18.95;35.97;99418.22;6220721;28;97369;-70
2022/10/19 11:53:45;;;;;;;;;4.00;4.00;;;;;18.72;36.48;99402.19;6225003;28;96229;-69
2022/10/19 11:56:53;;;;;;;;;5.00;5.00;;;;;18.75;36.31;99420.78;6207191;28;96296;-68
2022/10/19 12:00:11;;;;;;;;;3.67;3.67;;;;;18.88;36.62;99423.06;6228491;28;96835;-70
2022/10/19 12:03:52;;;;;;;;;3.00;3.00;;;;;18.92;36.63;99424.19;6210102;28;96431;-69
2022/10/19 12:07:05;;;;;;;;;3.00;3.00;;;;;18.94;36.64;99418.47;6227682;28;97499;-69
2022/10/19 12:10:21;;;;;;;;;3.20;3.20;;;;;18.79;36.63;99380.94;6217616;28;96614;-70
2022/10/19 12:13:31;;;;;;;;;2.20;2.20;;;;;19.07;36.51;99403.50;6215286;28;97574;-70
2022/10/19 12:16:40;;;;;;;;;4.33;4.00;;;;;19.10;36.50;99392.06;6197757;28;98514;-70
2022/10/19 12:19:48;;;;;;;;;3.60;3.60;;;;;19.16;36.48;99391.81;6222777;28;96250;-69
2022/10/19 12:22:52;;;;;;;;;4.40;4.40;;;;;19.41;36.99;99389.19;6203571;28;96830;-69
2022/10/19 12:25:59;;;;;;;;;6.00;5.00;;;;;19.58;36.28;99393.69;6223564;28;96595;-70
2022/10/19 12:29:06;;;;;;;;;5.00;5.00;;;;;19.54;36.37;99384.38;6213111;28;97110;-70
2022/10/19 12:32:15;;;;;;;;;4.20;3.20;;;;;19.54;36.65;99381.63;6235801;28;96600;-68
2022/10/19 12:35:32;;;;;;;;;6.00;6.00;;;;;19.40;37.15;99384.03;6218734;28;97314;-70
2022/10/19 12:38:46;;;;;;;;;6.00;5.00;;;;;18.99;38.21;99393.91;6205725;28;96678;-69
2022/10/19 12:42:09;;;;;;;;;5.40;5.40;;;;;18.93;38.75;99395.78;6224876;28;96739;-68
2022/10/19 12:45:25;;;;;;;;;4.00;4.00;;;;;18.85;39.27;99393.56;6226134;28;96343;-70
2022/10/19 12:48:29;;;;;;;;;5.80;5.00;;;;;18.96;39.13;99397.97;6208335;28;96522;-69
2022/10/19 12:51:45;;;;;;;;;6.00;5.00;;;;;18.94;38.44;99402.06;6224650;28;96493;-70
2022/10/19 12:54:49;;;;;;;;;4.60;4.00;;;;;18.87;38.43;99404.19;6203652;28;96870;-68
2022/10/19 12:58:06;;;;;;;;;6.00;5.00;;;;;18.76;38.85;99394.31;6222993;28;96459;-69
2022/10/19 13:01:16;;;;;;;;;5.00;4.50;;;;;18.72;38.89;99396.72;6213348;28;96283;-70
2022/10/19 13:04:23;;;;;;;;;5.00;5.00;;;;;18.58;39.01;99401.81;6221954;28;96367;-70
2022/10/19 13:07:28;;;;;;;;;5.00;5.00;;;;;18.58;39.32;99412.72;6238243;28;96303;-70
2022/10/19 13:10:33;;;;;;;;;6.40;6.00;;;;;18.39;39.61;99402.44;6238010;28;96457;-70
2022/10/19 13:14:00;;;;;;;;;3.60;3.00;;;;;18.31;40.11;99392.81;6238251;28;96865;-71
2022/10/19 13:17:03;;;;;;;;;5.75;4.00;;;;;18.38;39.98;99403.50;6228526;28;96893;-70
2022/10/19 13:20:47;;;;;;;;;5.00;4.00;;;;;18.27;40.28;99413.53;6225488;28;96244;-70
2022/10/19 13:23:51;;;;;;;;;4.80;4.20;;;;;18.24;40.59;99405.84;6228672;28;97007;-69
2022/10/19 13:27:27;;;;;;;;;6.67;6.00;;;;;18.17;40.47;99402.53;6186175;28;96656;-70
2022/10/19 13:31:04;;;;;;;;;6.00;5.60;;;;;18.09;41.04;99403.81;6210393;28;97450;-69
2022/10/19 13:34:15;;;;;;;;;4.00;4.00;;;;;18.06;40.92;99406.22;6221337;28;96822;-70
2022/10/19 13:37:19;;;;;;;;;6.00;5.00;;;;;18.05;41.07;99399.94;6194098;28;96919;-70
2022/10/19 13:40:23;;;;;;;;;4.33;4.33;;;;;17.96;41.33;99395.22;6221439;28;96452;-70
2022/10/19 13:43:30;;;;;;;;;4.00;4.00;;;;;17.92;41.60;99403.09;6198680;28;97151;-69
2022/10/19 13:47:12;;;;;;;;;3.00;3.00;;;;;17.91;41.87;99406.91;6227687;28;96413;-69
2022/10/19 13:50:40;;;;;;;;;8.00;8.00;;;;;17.91;41.72;99409.63;6198082;28;98435;-71
2022/10/19 13:53:52;;;;;;;;;6.00;5.00;;;;;17.97;41.63;99415.97;6213254;28;96273;-70
2022/10/19 13:57:22;;;;;;;;;7.00;7.00;;;;;17.88;41.84;99418.34;6237349;28;96368;-70
2022/10/19 14:00:32;;;;;;;;;4.00;4.00;;;;;17.91;42.26;99416.97;6227342;28;96579;-70
2022/10/19 14:03:54;;;;;;;;;4.00;4.00;;;;;17.81;42.20;99417.69;6218682;28;96707;-70
2022/10/19 14:07:05;;;;;;;;;6.00;5.50;;;;;17.66;42.63;99409.34;6217054;28;97483;-69
2022/10/19 14:10:16;;;;;;;;;7.00;6.60;;;;;17.63;42.65;99401.69;6216632;28;97946;-69
2022/10/19 14:13:21;;;;;;;;;4.25;4.00;;;;;17.65;43.05;99410.41;6217939;28;97282;-70
2022/10/19 14:16:24;;;;;;;;;6.00;5.00;;;;;17.55;43.24;99404.81;6217660;28;96946;-70
2022/10/19 14:19:31;;;;;;;;;4.20;3.20;;;;;17.50;43.80;99402.84;6221606;28;96287;-70
2022/10/19 14:22:36;;;;;;;;;5.60;5.00;;;;;17.44;43.58;99397.59;6222507;28;97324;-69
2022/10/19 14:25:39;;;;;;;;;5.00;4.00;;;;;17.49;43.92;99397.66;6224305;28;97449;-70
2022/10/19 14:28:43;;;;;;;;;5.00;4.50;;;;;17.43;43.91;99402.22;6210013;28;96703;-70
2022/10/19 14:31:47;;;;;;;;;5.25;5.00;;;;;17.43;44.15;99394.03;6204379;28;96945;-70
2022/10/19 14:34:52;;;;;;;;;5.00;4.00;;;;;17.48;44.12;99390.56;6218214;28;96694;-70
2022/10/19 14:37:56;;;;;;;;;5.00;5.00;;;;;17.39;44.41;99383.91;6224297;28;96403;-70